Time;durP1;ratioP1;P1;durP2;ratioP2;P2;SDS_P1;SDS_P2;PMS_P1;PMS_P2;Temp;Humidity;BMP_temperature;BMP_pressure;BME280_temperature;BME280_humidity;BME280_pressure;Samples;Min_cycle;Max_cycle;Signal;HPM_P1;HPM_P2
2023/09/26 00:02:12;;;;;;;17.23;12.95;;;13.50;99.90;;;;;;5017399;28;20057;-76
2023/09/26 00:04:37;;;;;;;18.38;13.07;;;13.50;99.90;;;;;;5017101;28;20470;-78
2023/09/26 00:07:03;;;;;;;17.13;13.02;;;13.40;99.90;;;;;;5016861;28;20495;-77
2023/09/26 00:09:30;;;;;;;19.40;14.02;;;13.50;99.90;;;;;;5017547;28;20061;-77
2023/09/26 00:11:56;;;;;;;18.05;13.32;;;13.50;99.90;;;;;;5034163;28;20408;-77
2023/09/26 00:14:22;;;;;;;19.30;14.10;;;13.50;99.90;;;;;;5017760;28;20084;-77
2023/09/26 00:16:47;;;;;;;19.27;14.27;;;13.50;99.90;;;;;;5022300;28;20521;-77
2023/09/26 00:19:13;;;;;;;22.83;14.23;;;13.50;99.90;;;;;;4997220;28;20049;-77
2023/09/26 00:21:39;;;;;;;20.40;14.25;;;13.50;99.90;;;;;;4998055;28;20056;-76
2023/09/26 00:24:05;;;;;;;19.90;15.10;;;13.50;99.90;;;;;;4997406;28;20124;-77
2023/09/26 00:26:31;;;;;;;18.33;13.55;;;13.50;99.90;;;;;;5015176;28;20096;-77
2023/09/26 00:28:57;;;;;;;20.08;15.23;;;13.50;99.90;;;;;;4997212;28;20504;-77
2023/09/26 00:31:23;;;;;;;19.05;14.48;;;13.50;99.90;;;;;;4997987;28;20057;-77
2023/09/26 00:33:53;;;;;;;18.33;13.85;;;13.40;99.90;;;;;;4996873;28;20490;-77
2023/09/26 00:36:18;;;;;;;21.25;15.43;;;13.40;99.90;;;;;;4997601;28;20045;-77
2023/09/26 00:38:44;;;;;;;19.23;14.48;;;13.40;99.90;;;;;;4997448;28;20050;-77
2023/09/26 00:41:10;;;;;;;20.70;14.48;;;13.40;99.90;;;;;;4997771;28;20080;-77
2023/09/26 00:43:35;;;;;;;17.17;13.77;;;13.40;99.90;;;;;;4997456;28;20167;-76
2023/09/26 00:46:06;;;;;;;19.90;13.60;;;13.40;99.90;;;;;;5015956;28;20057;-78
2023/09/26 00:48:33;;;;;;;19.27;14.20;;;13.40;99.90;;;;;;5011671;28;20377;-78
2023/09/26 00:50:59;;;;;;;19.60;15.10;;;13.30;99.90;;;;;;5016630;28;20102;-78
2023/09/26 00:53:32;;;;;;;21.20;14.40;;;13.30;99.90;;;;;;5016040;28;20497;-78
2023/09/26 00:55:59;;;;;;;20.25;15.57;;;13.30;99.90;;;;;;5016810;28;20049;-78
2023/09/26 00:58:25;;;;;;;20.05;15.38;;;13.30;99.90;;;;;;5016571;28;20060;-78
2023/09/26 01:00:53;;;;;;;21.60;15.70;;;13.30;99.90;;;;;;5031802;28;20404;-78
2023/09/26 01:03:21;;;;;;;21.90;15.82;;;13.30;99.90;;;;;;5009068;28;20053;-78
2023/09/26 01:05:46;;;;;;;21.77;16.38;;;13.30;99.90;;;;;;5000539;28;20072;-78
2023/09/26 01:08:12;;;;;;;20.40;15.45;;;13.30;99.90;;;;;;4997331;28;20041;-77
2023/09/26 01:10:41;;;;;;;20.67;15.10;;;13.30;99.90;;;;;;4996939;28;20050;-78
2023/09/26 01:13:07;;;;;;;23.23;16.83;;;13.30;99.90;;;;;;4996210;28;20052;-78
2023/09/26 01:15:39;;;;;;;21.70;15.90;;;13.30;99.90;;;;;;4996081;28;20050;-78
2023/09/26 01:18:09;;;;;;;20.48;16.38;;;13.40;99.90;;;;;;4999300;28;20037;-78
2023/09/26 01:20:44;;;;;;;20.60;15.60;;;13.40;99.90;;;;;;4996661;28;20054;-78
2023/09/26 01:23:14;;;;;;;23.98;15.25;;;13.40;99.90;;;;;;4995606;28;20049;-78
2023/09/26 01:25:41;;;;;;;21.55;15.52;;;13.40;99.90;;;;;;4996322;28;20045;-78
2023/09/26 01:28:09;;;;;;;21.60;15.65;;;13.30;99.90;;;;;;4998799;28;20401;-78
2023/09/26 01:30:35;;;;;;;20.60;15.25;;;13.30;99.90;;;;;;5032484;28;20045;-78
2023/09/26 01:33:08;;;;;;;20.40;14.68;;;13.30;99.90;;;;;;5033334;28;20045;-78
2023/09/26 01:35:34;;;;;;;21.25;15.15;;;13.20;99.90;;;;;;5015325;28;20037;-78
2023/09/26 01:38:00;;;;;;;21.33;15.25;;;13.20;99.90;;;;;;5033340;28;20068;-78
2023/09/26 01:40:25;;;;;;;18.92;14.32;;;13.20;99.90;;;;;;5015867;28;20477;-78
2023/09/26 01:42:51;;;;;;;23.85;15.65;;;13.20;99.90;;;;;;5014427;28;20053;-77
2023/09/26 01:45:17;;;;;;;20.85;15.88;;;13.10;99.90;;;;;;5015761;28;20203;-78
2023/09/26 01:47:48;;;;;;;18.73;14.60;;;13.10;99.90;;;;;;5033498;28;20046;-78
2023/09/26 01:50:15;;;;;;;21.25;15.13;;;13.10;99.90;;;;;;5015401;28;20115;-78
2023/09/26 01:52:41;;;;;;;18.17;14.93;;;13.10;99.90;;;;;;5015264;28;20439;-78
2023/09/26 01:55:11;;;;;;;18.65;14.88;;;13.10;99.90;;;;;;5015349;28;20132;-78
2023/09/26 01:57:37;;;;;;;21.05;15.45;;;13.10;99.90;;;;;;5014320;28;20034;-78
2023/09/26 02:00:11;;;;;;;20.55;15.07;;;13.10;99.90;;;;;;5014694;28;20563;-78
2023/09/26 02:02:41;;;;;;;22.65;14.45;;;13.10;99.90;;;;;;5015499;28;20045;-78
2023/09/26 02:05:08;;;;;;;20.42;15.48;;;13.10;99.90;;;;;;5014486;28;20080;-77
2023/09/26 02:07:34;;;;;;;21.00;15.23;;;13.20;99.90;;;;;;5013604;28;20072;-78
2023/09/26 02:10:00;;;;;;;24.15;15.75;;;13.20;99.90;;;;;;5015013;28;20084;-78
2023/09/26 02:12:26;;;;;;;22.45;15.93;;;13.20;99.90;;;;;;5014898;28;20048;-78
2023/09/26 02:14:51;;;;;;;21.13;15.18;;;13.20;99.90;;;;;;5014938;28;20046;-78
2023/09/26 02:17:17;;;;;;;19.80;15.55;;;13.20;99.90;;;;;;5010446;28;20048;-78
2023/09/26 02:19:43;;;;;;;19.63;15.63;;;13.30;99.90;;;;;;4994934;28;20478;-78
2023/09/26 02:22:08;;;;;;;21.17;16.02;;;13.20;99.90;;;;;;4995327;28;20077;-78
2023/09/26 02:24:34;;;;;;;24.88;16.48;;;13.20;99.90;;;;;;4995773;28;20119;-78
2023/09/26 02:27:00;;;;;;;20.70;17.02;;;13.20;99.90;;;;;;4994803;28;20104;-78
2023/09/26 02:29:28;;;;;;;19.05;14.65;;;13.20;99.90;;;;;;4995437;28;20041;-78
2023/09/26 02:31:53;;;;;;;20.85;16.77;;;13.20;99.90;;;;;;5010767;28;20046;-78
2023/09/26 02:34:22;;;;;;;21.58;15.90;;;13.20;99.90;;;;;;4995727;28;20400;-78
2023/09/26 02:36:48;;;;;;;20.85;16.33;;;13.20;99.90;;;;;;4996139;28;20042;-77
2023/09/26 02:39:14;;;;;;;19.85;15.93;;;13.20;99.90;;;;;;5024384;28;20507;-78
2023/09/26 02:41:39;;;;;;;23.02;16.13;;;13.10;99.90;;;;;;4995304;28;20046;-78
2023/09/26 02:44:06;;;;;;;21.08;16.13;;;13.20;99.90;;;;;;4995270;28;20165;-78
2023/09/26 02:46:35;;;;;;;21.70;15.75;;;13.20;99.90;;;;;;4994164;28;20049;-78
2023/09/26 02:49:01;;;;;;;19.98;15.95;;;13.20;99.90;;;;;;4994821;28;20050;-78
2023/09/26 02:51:27;;;;;;;20.40;15.45;;;13.30;99.90;;;;;;4995346;28;20080;-78
2023/09/26 02:53:53;;;;;;;22.15;15.80;;;13.30;99.90;;;;;;4994360;28;20438;-78
2023/09/26 02:56:18;;;;;;;22.27;16.25;;;13.30;99.90;;;;;;4995181;28;20386;-78
2023/09/26 02:58:44;;;;;;;20.13;14.88;;;13.30;99.90;;;;;;4995500;28;20049;-78
2023/09/26 03:01:15;;;;;;;22.55;15.15;;;13.30;99.90;;;;;;4993714;28;20052;-78
2023/09/26 03:03:41;;;;;;;19.20;14.75;;;13.20;99.90;;;;;;5011463;28;20054;-79
2023/09/26 03:06:06;;;;;;;18.48;15.13;;;13.30;99.90;;;;;;5011167;28;20153;-78
2023/09/26 03:08:33;;;;;;;20.00;15.27;;;13.20;99.90;;;;;;4994394;28;20508;-78
2023/09/26 03:11:03;;;;;;;22.08;15.45;;;13.30;99.90;;;;;;5013345;28;20092;-78
2023/09/26 03:13:32;;;;;;;22.95;16.23;;;13.30;99.90;;;;;;5000165;28;20046;-78
2023/09/26 03:15:58;;;;;;;21.33;15.35;;;13.30;99.90;;;;;;4998035;28;20085;-78
2023/09/26 03:18:27;;;;;;;22.70;15.40;;;13.40;99.90;;;;;;4999107;28;20489;-78
2023/09/26 03:20:54;;;;;;;17.60;14.50;;;13.20;99.90;;;;;;5014927;28;20462;-78
2023/09/26 03:23:24;;;;;;;20.65;14.25;;;13.20;99.90;;;;;;4999688;28;20375;-78
2023/09/26 03:25:50;;;;;;;17.33;14.55;;;13.20;99.90;;;;;;5017821;28;20405;-78
2023/09/26 03:28:16;;;;;;;22.33;14.60;;;13.20;99.90;;;;;;5017703;28;20052;-78
2023/09/26 03:30:43;;;;;;;19.23;14.32;;;13.20;99.90;;;;;;5018329;28;20570;-78
2023/09/26 03:33:12;;;;;;;20.73;14.82;;;13.20;99.90;;;;;;5006662;28;20115;-78
2023/09/26 03:35:38;;;;;;;19.80;15.15;;;13.10;99.90;;;;;;5026023;28;20047;-77
2023/09/26 03:38:03;;;;;;;20.13;14.70;;;13.10;99.90;;;;;;5016888;28;20038;-80
2023/09/26 03:40:30;;;;;;;19.25;14.93;;;13.10;99.90;;;;;;5018085;28;20148;-83
2023/09/26 03:42:55;;;;;;;19.60;14.63;;;13.10;99.90;;;;;;5015417;28;20470;-82
2023/09/26 03:45:22;;;;;;;19.60;15.13;;;13.10;99.90;;;;;;5034726;28;20144;-80
2023/09/26 03:47:49;;;;;;;19.00;14.75;;;13.10;99.90;;;;;;5035434;28;20049;-78
2023/09/26 03:50:15;;;;;;;19.95;15.20;;;13.10;99.90;;;;;;5017199;28;20133;-78
2023/09/26 03:52:41;;;;;;;18.92;14.57;;;13.10;99.90;;;;;;5035743;28;20132;-78
2023/09/26 03:55:07;;;;;;;23.60;14.93;;;13.10;99.90;;;;;;5017568;28;20045;-82
2023/09/26 03:57:33;;;;;;;19.70;15.52;;;13.10;99.90;;;;;;5007808;28;20041;-82
2023/09/26 04:00:00;;;;;;;22.20;15.02;;;13.10;99.90;;;;;;4998345;28;20156;-84
2023/09/26 04:02:25;;;;;;;20.52;15.35;;;13.10;99.90;;;;;;4998423;28;20058;-83
2023/09/26 04:04:51;;;;;;;19.60;15.25;;;13.10;99.90;;;;;;4996967;28;20108;-86
2023/09/26 04:07:17;;;;;;;20.23;15.05;;;13.20;99.90;;;;;;4999764;28;20053;-82
2023/09/26 04:09:42;;;;;;;24.83;15.95;;;13.10;99.90;;;;;;5017040;28;20033;-79
2023/09/26 04:12:08;;;;;;;23.60;15.05;;;13.10;99.90;;;;;;5016577;28;20049;-82
2023/09/26 04:14:33;;;;;;;23.55;15.88;;;13.10;99.90;;;;;;5002751;28;20121;-86
2023/09/26 04:17:00;;;;;;;22.33;15.48;;;13.10;99.90;;;;;;4998466;28;20141;-82
2023/09/26 04:19:26;;;;;;;20.02;15.38;;;13.20;99.90;;;;;;4997206;28;20047;-82
2023/09/26 04:21:54;;;;;;;19.95;15.57;;;13.20;99.90;;;;;;4997974;28;20054;-83
2023/09/26 04:24:20;;;;;;;18.85;15.45;;;13.20;99.90;;;;;;5012070;28;20080;-80
2023/09/26 04:26:46;;;;;;;23.73;16.20;;;13.20;99.90;;;;;;4997849;28;20042;-82
2023/09/26 04:29:13;;;;;;;20.95;15.68;;;13.20;99.90;;;;;;5029706;28;20400;-83
2023/09/26 04:31:39;;;;;;;21.58;16.17;;;13.20;99.90;;;;;;5033720;28;20049;-83
2023/09/26 04:34:04;;;;;;;21.40;15.10;;;13.20;99.90;;;;;;5016778;28;20041;-82
2023/09/26 04:36:30;;;;;;;23.95;15.88;;;13.20;99.90;;;;;;5017284;28;20112;-82
2023/09/26 04:38:56;;;;;;;25.13;16.55;;;13.20;99.90;;;;;;4996717;28;20124;-83
2023/09/26 04:41:22;;;;;;;21.00;14.82;;;13.10;99.90;;;;;;4997231;28;20129;-83
2023/09/26 04:43:47;;;;;;;21.83;16.95;;;13.10;99.90;;;;;;5005417;28;20042;-82
2023/09/26 04:46:15;;;;;;;20.77;15.35;;;13.10;99.90;;;;;;5033942;28;20053;-82
2023/09/26 04:48:42;;;;;;;20.52;16.63;;;13.10;99.90;;;;;;5014168;28;20096;-84
2023/09/26 04:51:09;;;;;;;20.38;15.70;;;13.10;99.90;;;;;;5008450;28;20057;-83
2023/09/26 04:53:35;;;;;;;22.40;16.42;;;13.00;99.90;;;;;;5010741;28;20073;-84
2023/09/26 04:56:01;;;;;;;18.08;13.90;;;13.00;99.90;;;;;;4997118;28;20042;-83
2023/09/26 04:58:29;;;;;;;20.35;15.02;;;13.00;99.90;;;;;;4997467;28;20054;-82
2023/09/26 05:00:55;;;;;;;21.88;15.85;;;13.00;99.90;;;;;;4996286;28;20116;-82
2023/09/26 05:03:20;;;;;;;20.88;15.73;;;13.00;99.90;;;;;;5025354;28;20041;-83
2023/09/26 05:05:46;;;;;;;21.50;15.98;;;13.00;99.90;;;;;;5016859;28;20047;-84
2023/09/26 05:08:12;;;;;;;21.92;15.90;;;13.00;99.90;;;;;;5016060;28;20076;-79
2023/09/26 05:10:41;;;;;;;22.02;15.95;;;13.10;99.90;;;;;;5016398;28;20435;-83
2023/09/26 05:13:07;;;;;;;18.05;14.35;;;13.00;99.90;;;;;;5016392;28;20053;-82
2023/09/26 05:15:34;;;;;;;20.52;15.32;;;13.00;99.90;;;;;;5033860;28;20366;-81
2023/09/26 05:18:01;;;;;;;19.35;15.85;;;13.00;99.90;;;;;;4998356;28;20072;-81
2023/09/26 05:20:26;;;;;;;19.38;15.85;;;13.00;99.90;;;;;;5014183;28;20042;-85
2023/09/26 05:22:52;;;;;;;21.33;16.80;;;13.00;99.90;;;;;;4999025;28;20052;-81
2023/09/26 05:25:21;;;;;;;20.52;16.63;;;13.00;99.90;;;;;;5015488;28;20093;-93
2023/09/26 05:27:47;;;;;;;20.00;16.33;;;13.00;99.90;;;;;;5012691;28;20041;-92
2023/09/26 05:30:13;;;;;;;23.67;16.38;;;13.00;99.90;;;;;;5017452;28;20056;-87
2023/09/26 05:32:40;;;;;;;19.65;15.70;;;13.00;99.90;;;;;;5015012;28;20029;-84
2023/09/26 05:35:07;;;;;;;19.88;16.23;;;13.00;99.90;;;;;;5012899;28;20037;-77
2023/09/26 05:37:34;;;;;;;21.65;16.92;;;13.00;99.90;;;;;;5002231;28;20037;-78
2023/09/26 05:40:00;;;;;;;19.75;15.60;;;13.00;99.90;;;;;;5012007;28;20053;-79
2023/09/26 05:42:26;;;;;;;22.50;16.02;;;12.90;99.90;;;;;;5011038;28;20132;-78
2023/09/26 05:44:52;;;;;;;22.52;15.75;;;13.00;99.90;;;;;;5010999;28;20125;-77
2023/09/26 05:47:17;;;;;;;19.38;15.52;;;13.00;99.90;;;;;;5009824;28;20053;-77
2023/09/26 05:49:43;;;;;;;20.17;15.70;;;13.00;99.90;;;;;;5011270;28;20100;-76
2023/09/26 05:52:09;;;;;;;23.38;15.90;;;13.00;99.90;;;;;;5032173;28;20525;-77
2023/09/26 05:54:34;;;;;;;20.65;16.38;;;13.10;99.90;;;;;;5014896;28;20528;-77
2023/09/26 06:02:01;;;;;;;21.57;15.67;;;13.20;99.90;;;;;;5954729;23;21282;-77
2023/09/26 06:04:26;;;;;;;21.58;15.95;;;13.20;99.90;;;;;;5007706;28;20050;-77
2023/09/26 06:06:52;;;;;;;21.65;16.35;;;13.30;99.90;;;;;;5006124;28;20054;-77
2023/09/26 06:09:18;;;;;;;21.30;16.55;;;13.30;99.90;;;;;;5007029;28;20396;-77
2023/09/26 06:11:43;;;;;;;20.23;15.02;;;13.40;99.90;;;;;;4993559;28;20490;-77
2023/09/26 06:14:09;;;;;;;20.25;15.90;;;13.40;99.90;;;;;;4991446;28;20077;-77
2023/09/26 06:16:35;;;;;;;19.20;15.95;;;13.50;99.90;;;;;;4990446;28;20053;-77
2023/09/26 06:19:00;;;;;;;21.67;16.40;;;13.50;99.90;;;;;;4989509;28;20050;-78
2023/09/26 06:21:29;;;;;;;20.42;15.68;;;13.50;99.90;;;;;;4991318;28;20039;-78
2023/09/26 06:23:55;;;;;;;18.77;15.60;;;13.50;99.90;;;;;;4993023;28;20039;-78
2023/09/26 06:26:21;;;;;;;19.67;15.30;;;13.60;99.90;;;;;;4993285;28;20047;-78
2023/09/26 06:28:47;;;;;;;19.48;15.00;;;13.60;99.90;;;;;;4991916;28;20096;-78
2023/09/26 06:31:18;;;;;;;20.85;15.75;;;13.70;99.90;;;;;;4991316;28;20125;-78
2023/09/26 06:33:47;;;;;;;24.15;16.63;;;13.70;99.90;;;;;;4992244;28;20046;-78
2023/09/26 06:36:20;;;;;;;23.70;16.00;;;13.80;99.90;;;;;;5001942;28;20053;-78
2023/09/26 06:38:46;;;;;;;18.83;15.18;;;13.80;99.90;;;;;;5011007;28;20038;-78
2023/09/26 06:41:12;;;;;;;21.50;15.50;;;13.80;99.90;;;;;;5011727;28;20547;-78
2023/09/26 06:43:38;;;;;;;19.00;15.77;;;13.80;99.90;;;;;;5012812;28;20041;-78
2023/09/26 06:46:08;;;;;;;20.83;15.43;;;13.90;99.90;;;;;;4994648;28;20478;-78
2023/09/26 06:48:38;;;;;;;18.67;15.20;;;13.90;99.90;;;;;;4992164;28;20046;-78
2023/09/26 06:51:04;;;;;;;18.30;15.05;;;13.90;99.90;;;;;;4998556;28;20122;-78
2023/09/26 06:53:30;;;;;;;19.63;14.90;;;14.00;99.90;;;;;;5011079;28;20046;-78
2023/09/26 06:56:04;;;;;;;21.77;14.27;;;14.10;99.90;;;;;;5011411;28;20042;-78
2023/09/26 06:58:30;;;;;;;19.27;14.57;;;14.20;99.90;;;;;;5011550;28;20053;-78
2023/09/26 07:00:59;;;;;;;19.35;14.55;;;14.20;99.90;;;;;;5009719;28;20046;-78
2023/09/26 07:03:29;;;;;;;16.40;13.90;;;14.20;99.90;;;;;;5007196;28;20069;-77
2023/09/26 07:05:55;;;;;;;21.40;15.25;;;14.30;99.90;;;;;;5010970;28;20050;-78
2023/09/26 07:08:21;;;;;;;18.80;15.02;;;14.30;99.90;;;;;;5012033;28;20219;-78
2023/09/26 07:10:50;;;;;;;19.95;14.45;;;14.40;99.90;;;;;;5011143;28;20046;-78
2023/09/26 07:13:16;;;;;;;17.08;13.38;;;14.50;99.90;;;;;;5010916;28;20057;-78
2023/09/26 07:15:42;;;;;;;16.77;14.27;;;14.50;99.90;;;;;;4999459;28;20046;-78
2023/09/26 07:18:10;;;;;;;18.58;13.77;;;14.60;99.90;;;;;;4992762;28;20047;-78
2023/09/26 07:20:47;;;;;;;17.77;14.45;;;14.60;99.90;;;;;;4991147;28;20061;-78
2023/09/26 07:23:14;;;;;;;17.42;14.18;;;14.60;99.90;;;;;;4991811;28;20049;-78
2023/09/26 07:25:39;;;;;;;17.10;14.98;;;14.80;99.90;;;;;;4991745;28;20051;-78
2023/09/26 07:28:05;;;;;;;17.63;13.40;;;14.80;99.90;;;;;;4990940;28;20049;-77
2023/09/26 07:30:34;;;;;;;17.67;14.00;;;14.90;99.90;;;;;;4996808;28;20077;-77
2023/09/26 07:33:00;;;;;;;18.10;14.27;;;15.10;99.90;;;;;;5011379;28;20470;-77
2023/09/26 07:35:27;;;;;;;18.77;13.98;;;15.10;99.90;;;;;;5011850;28;20056;-77
2023/09/26 07:37:54;;;;;;;17.58;14.13;;;15.10;99.90;;;;;;5011069;28;20049;-77
2023/09/26 07:40:19;;;;;;;17.55;14.32;;;15.20;99.90;;;;;;5012348;28;20073;-77
2023/09/26 07:42:45;;;;;;;20.10;15.18;;;15.30;99.90;;;;;;5010237;28;20523;-77
2023/09/26 07:45:14;;;;;;;18.27;13.80;;;15.50;99.90;;;;;;5010753;28;20042;-77
2023/09/26 07:47:39;;;;;;;19.35;14.38;;;15.80;99.90;;;;;;5011100;28;20050;-78
2023/09/26 07:50:06;;;;;;;20.50;14.60;;;16.00;99.90;;;;;;5004255;28;20496;-76
2023/09/26 07:52:31;;;;;;;20.08;14.23;;;16.30;99.90;;;;;;4991479;28;20454;-77
2023/09/26 07:54:57;;;;;;;16.77;12.73;;;16.70;99.90;;;;;;4991366;28;20046;-77
2023/09/26 07:57:23;;;;;;;17.83;12.32;;;17.10;99.90;;;;;;4993027;28;20562;-77
2023/09/26 07:59:49;;;;;;;14.73;12.32;;;17.30;99.90;;;;;;4996815;28;20394;-77
2023/09/26 08:02:15;;;;;;;18.73;12.35;;;17.20;99.90;;;;;;5015787;28;20160;-77
2023/09/26 08:04:41;;;;;;;16.23;12.85;;;17.10;99.90;;;;;;5014606;28;20117;-78
2023/09/26 08:07:06;;;;;;;16.98;13.30;;;16.90;99.90;;;;;;5014102;28;20910;-77
2023/09/26 08:09:32;;;;;;;16.48;12.93;;;16.90;99.90;;;;;;5013492;28;20072;-77
2023/09/26 08:11:58;;;;;;;15.40;13.07;;;16.70;99.90;;;;;;5013177;28;20034;-77
2023/09/26 08:14:24;;;;;;;17.52;13.63;;;16.70;99.90;;;;;;4995122;28;20128;-77
2023/09/26 08:16:49;;;;;;;16.13;13.23;;;16.60;99.90;;;;;;4993826;28;20046;-77
2023/09/26 08:19:15;;;;;;;18.92;13.48;;;16.60;99.90;;;;;;4995894;28;20524;-77
2023/09/26 08:21:41;;;;;;;16.02;13.40;;;16.80;99.90;;;;;;4997974;28;20034;-78
2023/09/26 08:24:07;;;;;;;15.95;12.52;;;17.70;99.90;;;;;;5014189;28;20460;-78
2023/09/26 08:26:33;;;;;;;13.90;11.52;;;19.10;99.90;;;;;;5015068;28;20038;-78
2023/09/26 08:28:59;;;;;;;12.60;11.00;;;20.70;99.90;;;;;;4994545;28;20054;-78
2023/09/26 08:31:25;;;;;;;12.10;10.80;;;22.10;99.90;;;;;;5009872;28;20366;-78
2023/09/26 08:33:51;;;;;;;12.32;10.23;;;23.20;99.90;;;;;;5014562;28;20042;-78
2023/09/26 08:36:20;;;;;;;12.35;10.18;;;24.10;99.90;;;;;;5014251;28;20064;-78
2023/09/26 08:38:48;;;;;;;10.70;9.50;;;24.80;99.90;;;;;;5013057;28;20042;-78
2023/09/26 08:41:19;;;;;;;10.30;8.43;;;24.70;99.90;;;;;;5013074;28;20057;-78
2023/09/26 08:43:45;;;;;;;11.52;9.35;;;24.90;99.90;;;;;;5014804;28;20047;-78
2023/09/26 08:46:11;;;;;;;11.63;9.05;;;25.30;99.60;;;;;;5012653;28;20073;-78
2023/09/26 08:48:38;;;;;;;10.63;8.75;;;25.10;98.50;;;;;;5013824;28;20073;-78
2023/09/26 08:51:07;;;;;;;12.48;9.05;;;24.90;98.80;;;;;;5011802;28;20049;-78
2023/09/26 08:53:32;;;;;;;12.98;9.77;;;24.80;98.80;;;;;;5012413;28;20129;-78
2023/09/26 08:55:58;;;;;;;10.40;9.18;;;24.80;98.30;;;;;;5013412;28;20395;-78
2023/09/26 08:58:25;;;;;;;9.65;8.50;;;25.30;97.80;;;;;;5013557;28;20054;-78
2023/09/26 09:00:51;;;;;;;11.55;8.95;;;25.80;97.90;;;;;;5013183;28;20042;-78
2023/09/26 09:03:19;;;;;;;10.30;9.00;;;26.50;96.60;;;;;;5012854;28;20091;-78
2023/09/26 09:05:45;;;;;;;11.23;9.07;;;26.90;96.60;;;;;;5012483;28;20187;-78
2023/09/26 09:08:22;;;;;;;10.88;8.77;;;26.70;95.80;;;;;;5012817;28;20528;-79
2023/09/26 09:10:52;;;;;;;10.02;8.63;;;25.90;95.20;;;;;;5012764;28;20078;-78
2023/09/26 09:13:40;;;;;;;11.80;9.35;;;24.80;97.00;;;;;;4996915;28;20398;-78
2023/09/26 09:16:16;;;;;;;11.90;9.05;;;24.20;97.90;;;;;;5014023;28;20054;-79
2023/09/26 09:18:58;;;;;;;11.52;9.02;;;24.20;97.40;;;;;;5012919;28;20046;-78
2023/09/26 09:21:30;;;;;;;11.85;8.77;;;23.80;98.10;;;;;;5012125;28;20456;-78
2023/09/26 09:24:01;;;;;;;12.32;9.18;;;22.90;99.30;;;;;;5012936;28;20092;-78
2023/09/26 09:26:31;;;;;;;13.15;9.65;;;22.50;99.90;;;;;;5000997;28;20054;-78
2023/09/26 09:28:59;;;;;;;10.48;9.20;;;22.30;99.90;;;;;;4992298;28;20053;-78
2023/09/26 09:31:26;;;;;;;11.90;9.50;;;22.10;99.90;;;;;;4994543;28;20085;-78
2023/09/26 09:33:52;;;;;;;11.32;9.18;;;22.10;99.90;;;;;;4992040;28;20096;-78
2023/09/26 09:36:19;;;;;;;11.15;9.23;;;22.30;99.90;;;;;;4994479;28;20043;-78
2023/09/26 09:38:45;;;;;;;10.45;8.70;;;22.70;99.90;;;;;;4993306;28;20050;-78
2023/09/26 09:41:10;;;;;;;13.80;8.65;;;23.30;99.90;;;;;;5012076;28;20050;-78
2023/09/26 09:43:37;;;;;;;13.25;9.15;;;24.00;99.60;;;;;;5012691;28;20050;-78
2023/09/26 09:46:10;;;;;;;12.50;8.75;;;24.70;98.30;;;;;;5012415;28;20136;-78
2023/09/26 09:48:41;;;;;;;10.20;8.20;;;25.00;97.50;;;;;;5013392;28;20054;-78
2023/09/26 09:51:10;;;;;;;12.20;8.10;;;24.80;97.70;;;;;;4996365;28;20054;-78
2023/09/26 09:53:36;;;;;;;8.63;7.53;;;24.60;97.80;;;;;;5012775;28;20428;-78
2023/09/26 09:56:06;;;;;;;9.48;7.22;;;24.70;96.80;;;;;;5012117;28;20049;-78
2023/09/26 09:58:33;;;;;;;11.35;8.23;;;24.60;97.20;;;;;;5012658;28;20064;-78
2023/09/26 10:01:00;;;;;;;11.15;8.27;;;24.50;97.30;;;;;;5012157;28;20099;-78
2023/09/26 10:03:26;;;;;;;10.80;8.02;;;24.20;96.80;;;;;;5012491;28;20073;-78
2023/09/26 10:05:53;;;;;;;10.98;8.65;;;23.80;97.10;;;;;;5013111;28;20050;-77
2023/09/26 10:08:26;;;;;;;14.15;8.45;;;23.20;98.10;;;;;;5012384;28;20109;-77
2023/09/26 10:10:54;;;;;;;12.02;9.05;;;23.60;99.40;;;;;;4994609;28;20037;-77
2023/09/26 10:13:20;;;;;;;12.77;9.55;;;22.90;99.70;;;;;;5008372;28;20532;-77
2023/09/26 10:16:14;;;;;;;12.27;8.50;;;22.80;99.90;;;;;;5011267;28;20391;-77
2023/09/26 10:18:42;;;;;;;11.02;8.55;;;22.80;99.90;;;;;;5012435;28;20069;-77
2023/09/26 10:21:30;;;;;;;11.40;9.10;;;23.00;99.90;;;;;;5011451;28;20501;-77
2023/09/26 10:24:19;;;;;;;11.07;9.25;;;23.00;99.80;;;;;;5011245;28;20061;-77
2023/09/26 10:26:50;;;;;;;11.40;9.00;;;23.10;99.50;;;;;;4988452;28;20066;-77
2023/09/26 10:29:30;;;;;;;13.75;8.57;;;23.10;99.50;;;;;;4992320;28;20057;-77
2023/09/26 10:32:04;;;;;;;12.00;9.73;;;23.10;99.90;;;;;;4992968;28;20054;-77
2023/09/26 10:34:34;;;;;;;10.45;8.38;;;23.40;99.50;;;;;;4992046;28;20085;-77
2023/09/26 10:37:05;;;;;;;11.65;8.25;;;24.00;99.40;;;;;;4993209;28;20109;-78
2023/09/26 10:39:36;;;;;;;11.02;8.50;;;24.60;98.90;;;;;;4992223;28;20061;-77
2023/09/26 10:42:16;;;;;;;10.82;8.05;;;25.00;97.80;;;;;;5003809;28;20054;-78
2023/09/26 10:44:43;;;;;;;10.13;8.43;;;25.90;97.50;;;;;;5010526;28;20132;-78
2023/09/26 10:47:12;;;;;;;11.57;7.88;;;26.80;96.20;;;;;;5011379;28;20498;-77
2023/09/26 10:49:37;;;;;;;12.10;7.97;;;27.60;95.30;;;;;;5011890;28;20041;-78
2023/09/26 10:52:08;;;;;;;11.70;8.07;;;28.10;94.30;;;;;;4997529;28;20046;-78
2023/09/26 10:54:35;;;;;;;9.13;7.85;;;28.10;94.00;;;;;;4992215;28;20034;-77
2023/09/26 10:57:00;;;;;;;10.90;7.82;;;27.90;93.20;;;;;;4991726;28;20050;-77
2023/09/26 10:59:30;;;;;;;9.85;7.60;;;27.60;93.20;;;;;;4991614;28;20061;-78
2023/09/26 11:01:56;;;;;;;10.27;6.88;;;27.10;93.10;;;;;;5001328;28;20052;-77
2023/09/26 11:04:31;;;;;;;12.07;8.00;;;26.30;93.70;;;;;;5004881;28;20141;-77
2023/09/26 11:07:00;;;;;;;11.05;7.97;;;25.60;94.90;;;;;;4995036;28;20089;-77
2023/09/26 11:09:27;;;;;;;10.63;8.43;;;25.40;94.90;;;;;;4993572;28;20050;-78
2023/09/26 11:11:55;;;;;;;10.38;8.48;;;25.00;95.30;;;;;;4992793;28;20050;-78
2023/09/26 11:14:22;;;;;;;10.20;8.43;;;24.80;95.70;;;;;;5006071;28;20052;-76
2023/09/26 11:16:53;;;;;;;11.40;9.27;;;24.60;96.10;;;;;;5011084;28;20045;-78
2023/09/26 11:19:23;;;;;;;12.35;9.32;;;25.50;96.50;;;;;;5011749;28;20050;-78
2023/09/26 11:21:49;;;;;;;11.30;8.13;;;26.80;96.00;;;;;;5009115;28;20076;-78
2023/09/26 11:24:21;;;;;;;10.95;8.18;;;27.70;93.80;;;;;;5011345;28;20525;-78
2023/09/26 11:26:50;;;;;;;11.57;8.48;;;28.30;93.20;;;;;;5010138;28;20046;-78
2023/09/26 11:29:20;;;;;;;11.23;8.13;;;28.60;93.70;;;;;;5011476;28;20045;-78
2023/09/26 11:31:47;;;;;;;10.25;8.32;;;29.00;93.70;;;;;;5012995;28;20045;-78
2023/09/26 11:34:16;;;;;;;10.50;7.18;;;29.50;92.90;;;;;;5005119;28;20548;-80
2023/09/26 11:36:43;;;;;;;9.75;7.65;;;30.20;92.80;;;;;;5011879;28;20050;-82
2023/09/26 11:39:22;;;;;;;11.10;8.05;;;30.60;91.90;;;;;;5010864;28;20042;-82
2023/09/26 11:42:06;;;;;;;9.32;7.05;;;30.90;91.10;;;;;;4994285;28;20158;-78
2023/09/26 11:44:32;;;;;;;9.63;7.70;;;30.80;90.20;;;;;;4995211;28;20038;-81
2023/09/26 11:46:58;;;;;;;9.60;7.45;;;30.70;90.40;;;;;;4994695;28;20068;-82
2023/09/26 11:49:24;;;;;;;8.68;6.90;;;30.00;91.30;;;;;;4994406;28;20034;-83
2023/09/26 11:51:53;;;;;;;10.45;7.50;;;29.60;90.90;;;;;;5002565;28;20038;-82
2023/09/26 11:54:19;;;;;;;10.60;7.47;;;29.10;91.40;;;;;;5014751;28;20037;-84
2023/09/26 11:56:45;;;;;;;11.60;7.88;;;28.70;91.60;;;;;;5013954;28;20030;-79
2023/09/26 11:59:14;;;;;;;9.73;7.03;;;28.70;91.30;;;;;;5014316;28;20378;-79
2023/09/26 12:01:43;;;;;;;10.07;6.95;;;28.80;92.00;;;;;;5013657;28;20080;-80
2023/09/26 12:04:12;;;;;;;10.55;7.03;;;29.10;91.80;;;;;;5013973;28;20058;-80
2023/09/26 12:06:40;;;;;;;9.32;6.30;;;29.40;91.20;;;;;;5014403;28;20053;-80
2023/09/26 12:09:20;;;;;;;11.00;6.85;;;28.90;91.20;;;;;;5013315;28;20605;-79
2023/09/26 12:11:52;;;;;;;9.32;6.30;;;28.00;91.50;;;;;;5014522;28;20049;-80
2023/09/26 12:14:18;;;;;;;8.95;6.13;;;27.50;92.30;;;;;;5014536;28;20077;-80
2023/09/26 12:16:44;;;;;;;9.30;5.88;;;26.90;92.40;;;;;;5014945;28;20371;-80
2023/09/26 12:19:11;;;;;;;7.60;5.55;;;26.20;93.10;;;;;;5015175;28;20052;-80
2023/09/26 12:21:36;;;;;;;10.48;6.30;;;25.70;93.40;;;;;;5014286;28;20038;-79
2023/09/26 12:24:02;;;;;;;10.38;6.25;;;25.20;93.80;;;;;;5014312;28;20522;-79
2023/09/26 12:26:28;;;;;;;9.38;6.22;;;24.80;94.80;;;;;;5014088;28;20050;-80
2023/09/26 12:28:54;;;;;;;9.18;6.60;;;24.40;95.10;;;;;;5001601;28;20038;-79
2023/09/26 12:31:22;;;;;;;9.93;6.35;;;24.30;95.20;;;;;;4993711;28;20046;-79
2023/09/26 12:33:48;;;;;;;11.20;6.85;;;24.10;95.70;;;;;;4993935;28;20035;-78
2023/09/26 12:36:13;;;;;;;9.68;7.13;;;24.20;96.30;;;;;;4994261;28;20069;-78
2023/09/26 12:38:41;;;;;;;8.48;6.57;;;24.30;96.60;;;;;;4993800;28;20042;-79